Time;durP1;ratioP1;P1;durP2;ratioP2;P2;SDS_P1;SDS_P2;PMS_P1;PMS_P2;Temp;Humidity;BMP_temperature;BMP_pressure;BME280_temperature;BME280_humidity;BME280_pressure;Samples;Min_cycle;Max_cycle;Signal;HPM_P1;HPM_P2
2022/07/29 00:02:02;;;;;;;2.15;1.30;;;16.00;99.00;;;;;;4843285;29;20057;-76
2022/07/29 00:04:28;;;;;;;3.60;1.20;;;16.00;99.10;;;;;;4856889;29;20467;-76
2022/07/29 00:06:53;;;;;;;1.92;1.10;;;15.90;99.10;;;;;;4855263;29;20037;-76
2022/07/29 00:09:19;;;;;;;2.38;1.30;;;15.90;99.60;;;;;;4852838;29;20053;-75
2022/07/29 00:11:45;;;;;;;2.90;1.30;;;15.80;99.80;;;;;;4840061;29;20045;-76
2022/07/29 00:14:10;;;;;;;2.72;1.27;;;15.80;99.70;;;;;;4854530;29;20057;-76
2022/07/29 00:16:36;;;;;;;3.25;1.02;;;15.90;99.70;;;;;;4827036;29;20049;-75
2022/07/29 00:19:03;;;;;;;2.53;1.20;;;15.90;99.90;;;;;;4838105;29;20045;-76
2022/07/29 00:21:28;;;;;;;4.45;1.42;;;15.80;99.70;;;;;;4859180;29;20081;-76
2022/07/29 00:23:54;;;;;;;1.40;1.20;;;15.90;99.90;;;;;;4851810;29;20077;-76
2022/07/29 00:26:20;;;;;;;2.67;1.10;;;15.90;99.90;;;;;;4856594;29;20065;-76
2022/07/29 00:28:45;;;;;;;2.58;1.10;;;15.80;99.90;;;;;;4845478;29;20102;-76
2022/07/29 00:31:11;;;;;;;5.50;1.50;;;15.90;99.90;;;;;;4841328;29;20042;-76
2022/07/29 00:33:37;;;;;;;2.35;1.30;;;15.80;99.90;;;;;;4811311;29;20052;-75
2022/07/29 00:36:03;;;;;;;3.45;1.35;;;15.80;99.90;;;;;;4843014;29;20390;-76
2022/07/29 00:38:29;;;;;;;1.90;1.35;;;15.80;99.90;;;;;;4820525;29;20154;-76
2022/07/29 00:40:55;;;;;;;3.40;1.27;;;15.80;99.90;;;;;;4812540;29;20086;-76
2022/07/29 00:43:20;;;;;;;4.03;1.50;;;15.80;99.90;;;;;;4857419;29;20088;-76
2022/07/29 00:45:46;;;;;;;2.35;1.40;;;15.70;99.90;;;;;;4823141;29;20467;-76
2022/07/29 00:48:12;;;;;;;1.85;1.20;;;15.70;99.90;;;;;;4828313;29;20053;-77
2022/07/29 00:50:38;;;;;;;6.00;1.75;;;15.70;99.90;;;;;;4843915;29;20042;-77
2022/07/29 00:53:06;;;;;;;3.40;1.50;;;15.70;99.90;;;;;;4856366;29;20135;-76
2022/07/29 00:55:32;;;;;;;2.40;1.58;;;15.70;99.90;;;;;;4855453;29;20132;-75
2022/07/29 00:57:59;;;;;;;3.83;1.52;;;15.70;99.90;;;;;;4844554;29;20511;-75
2022/07/29 01:00:26;;;;;;;2.22;1.23;;;15.70;99.90;;;;;;4842361;29;20449;-75
2022/07/29 01:02:52;;;;;;;2.13;1.40;;;15.60;99.90;;;;;;4844087;29;20038;-75
2022/07/29 01:05:21;;;;;;;2.53;1.30;;;15.60;99.90;;;;;;4848932;29;20049;-75
2022/07/29 01:07:48;;;;;;;3.33;1.50;;;15.60;99.90;;;;;;4857113;29;20160;-76
2022/07/29 01:10:15;;;;;;;1.88;1.40;;;15.70;99.90;;;;;;4831690;29;20048;-76
2022/07/29 01:12:44;;;;;;;2.97;1.55;;;15.60;99.90;;;;;;4843222;29;20113;-76
2022/07/29 01:15:10;;;;;;;2.75;1.80;;;15.70;99.90;;;;;;4854650;29;20189;-76
2022/07/29 01:17:54;;;;;;;4.05;1.60;;;15.70;99.90;;;;;;4826349;29;20044;-76
2022/07/29 01:20:25;;;;;;;4.93;1.70;;;15.60;99.90;;;;;;4851054;29;20041;-76
2022/07/29 01:23:09;;;;;;;2.78;1.60;;;15.60;99.90;;;;;;4849881;29;20059;-76
2022/07/29 01:25:41;;;;;;;4.32;1.58;;;15.60;99.90;;;;;;4846835;29;20504;-76
2022/07/29 01:28:31;;;;;;;3.25;1.40;;;15.60;99.90;;;;;;4841885;29;20490;-76
2022/07/29 01:31:00;;;;;;;3.10;1.17;;;15.60;99.90;;;;;;4853865;29;20533;-76
2022/07/29 01:36:18;;;;;;;2.65;1.20;;;15.70;99.90;;;;;;4853502;29;20050;-76
2022/07/29 01:38:49;;;;;;;3.85;1.63;;;15.70;99.90;;;;;;4856543;29;20093;-76
2022/07/29 01:41:17;;;;;;;3.47;1.63;;;15.70;99.90;;;;;;4854408;29;20038;-76
2022/07/29 01:43:56;;;;;;;2.30;1.48;;;15.60;99.90;;;;;;4860803;29;20052;-76
2022/07/29 01:46:34;;;;;;;5.57;1.60;;;15.60;99.90;;;;;;4870594;29;20129;-75
2022/07/29 01:49:10;;;;;;;2.30;1.50;;;15.60;99.90;;;;;;4863217;29;20101;-76
2022/07/29 01:51:50;;;;;;;3.83;1.40;;;15.60;99.90;;;;;;4862619;29;20115;-76
2022/07/29 01:54:35;;;;;;;1.73;1.27;;;15.60;99.90;;;;;;4840150;29;20113;-76
2022/07/29 01:57:03;;;;;;;3.58;1.73;;;15.60;99.90;;;;;;4843636;29;20053;-76
2022/07/29 01:59:30;;;;;;;2.55;1.30;;;15.60;99.90;;;;;;4844937;29;20045;-76
2022/07/29 02:01:58;;;;;;;3.25;1.50;;;15.60;99.90;;;;;;4829063;29;20513;-76
2022/07/29 02:04:25;;;;;;;3.15;1.60;;;15.60;99.90;;;;;;4839080;29;20112;-76
2022/07/29 02:06:54;;;;;;;3.42;1.85;;;15.60;99.90;;;;;;4860073;29;20439;-76
2022/07/29 02:09:21;;;;;;;2.78;1.40;;;15.60;99.90;;;;;;4867877;29;20132;-76
2022/07/29 02:11:55;;;;;;;3.17;1.52;;;15.60;99.90;;;;;;4844733;29;20105;-76
2022/07/29 02:14:23;;;;;;;4.07;1.63;;;15.60;99.90;;;;;;4840254;29;20049;-75
2022/07/29 02:16:53;;;;;;;2.30;1.27;;;15.60;99.90;;;;;;4844958;29;20045;-76
2022/07/29 02:19:22;;;;;;;3.90;1.67;;;15.60;99.90;;;;;;4857284;29;20073;-76
2022/07/29 02:21:49;;;;;;;3.47;1.60;;;15.50;99.90;;;;;;4845556;29;20045;-76
2022/07/29 02:24:17;;;;;;;3.10;1.40;;;15.50;99.90;;;;;;4835705;29;20052;-76
2022/07/29 02:26:44;;;;;;;5.82;2.00;;;15.50;99.90;;;;;;4846184;29;20041;-76
2022/07/29 02:29:11;;;;;;;4.40;1.70;;;15.50;99.90;;;;;;4845505;29;20057;-76
2022/07/29 02:31:38;;;;;;;3.13;1.30;;;15.50;99.90;;;;;;4840205;29;20495;-76
2022/07/29 02:34:07;;;;;;;4.40;1.52;;;15.50;99.90;;;;;;4843758;29;20046;-76
2022/07/29 02:36:33;;;;;;;2.63;1.48;;;15.40;99.90;;;;;;4858847;29;20077;-76
2022/07/29 02:39:01;;;;;;;2.78;1.35;;;15.40;99.90;;;;;;4844634;29;20113;-76
2022/07/29 02:41:30;;;;;;;3.28;1.48;;;15.40;99.90;;;;;;4852213;29;20105;-76
2022/07/29 02:44:08;;;;;;;3.83;1.38;;;15.40;99.90;;;;;;4837901;29;20390;-76
2022/07/29 02:46:36;;;;;;;3.58;1.83;;;15.40;99.90;;;;;;4843301;29;20049;-76
2022/07/29 02:49:20;;;;;;;4.00;1.40;;;15.40;99.90;;;;;;4834861;29;20112;-76
2022/07/29 02:51:53;;;;;;;2.92;1.20;;;15.40;99.90;;;;;;4855696;29;20054;-76
2022/07/29 02:54:47;;;;;;;5.63;2.13;;;15.40;99.90;;;;;;4857700;29;20053;-76
2022/07/29 02:57:59;;;;;;;2.53;1.50;;;15.40;99.90;;;;;;4850187;29;20056;-76
2022/07/29 03:00:28;;;;;;;2.95;1.20;;;15.40;99.90;;;;;;4841717;29;20057;-76
2022/07/29 03:02:59;;;;;;;2.00;1.55;;;15.40;99.90;;;;;;4842440;29;20081;-76
2022/07/29 03:05:26;;;;;;;4.47;1.80;;;15.40;99.90;;;;;;4845179;29;20470;-76
2022/07/29 03:07:57;;;;;;;5.18;1.75;;;15.40;99.90;;;;;;4842822;29;20041;-76
2022/07/29 03:10:24;;;;;;;2.33;1.38;;;15.30;99.90;;;;;;4838267;29;20067;-76
2022/07/29 03:12:51;;;;;;;3.83;1.38;;;15.30;99.90;;;;;;4839085;29;20550;-76
2022/07/29 03:15:18;;;;;;;4.18;1.40;;;15.30;99.90;;;;;;4851341;29;20098;-76
2022/07/29 03:17:44;;;;;;;4.43;1.60;;;15.30;99.90;;;;;;4826723;29;20042;-76
2022/07/29 03:20:11;;;;;;;5.95;1.60;;;15.30;99.90;;;;;;4842508;29;20042;-76
2022/07/29 03:22:46;;;;;;;4.30;1.42;;;15.20;99.90;;;;;;4810724;29;20372;-76
2022/07/29 03:25:18;;;;;;;2.72;1.50;;;15.20;99.90;;;;;;4849473;29;20082;-76
2022/07/29 03:27:44;;;;;;;3.38;1.50;;;15.20;99.90;;;;;;4852684;29;20045;-76
2022/07/29 03:30:11;;;;;;;4.15;1.55;;;15.10;99.90;;;;;;4853997;29;20046;-76
2022/07/29 03:32:38;;;;;;;3.30;1.50;;;15.20;99.90;;;;;;4847206;29;20402;-76
2022/07/29 03:35:04;;;;;;;4.78;1.50;;;15.10;99.90;;;;;;4847736;29;20664;-76
2022/07/29 03:37:30;;;;;;;4.25;1.50;;;15.10;99.90;;;;;;4842671;29;20158;-76
2022/07/29 03:39:57;;;;;;;4.13;1.48;;;15.10;99.90;;;;;;4845278;29;20189;-76
2022/07/29 03:42:27;;;;;;;3.00;1.67;;;15.00;99.90;;;;;;4849472;29;20041;-76
2022/07/29 03:44:55;;;;;;;6.40;1.70;;;15.10;99.90;;;;;;4846700;29;20129;-76
2022/07/29 03:47:28;;;;;;;3.53;1.75;;;15.00;99.90;;;;;;4852891;29;20142;-76
2022/07/29 03:49:59;;;;;;;3.33;1.52;;;15.00;99.90;;;;;;4838577;29;20053;-76
2022/07/29 03:52:25;;;;;;;2.70;1.50;;;15.00;99.90;;;;;;4857318;29;20045;-76
2022/07/29 03:54:51;;;;;;;2.65;1.45;;;15.00;99.90;;;;;;4845299;29;20415;-76
2022/07/29 03:57:20;;;;;;;3.00;1.20;;;15.00;99.90;;;;;;4854366;29;20050;-77
2022/07/29 03:59:46;;;;;;;3.58;1.85;;;15.00;99.90;;;;;;4834642;29;20044;-76
2022/07/29 04:02:13;;;;;;;3.72;1.80;;;14.90;99.90;;;;;;4852308;29;20121;-76
2022/07/29 04:04:39;;;;;;;3.92;1.70;;;14.90;99.90;;;;;;4843627;29;20052;-76
2022/07/29 04:07:04;;;;;;;4.18;1.58;;;14.90;99.90;;;;;;4803997;29;20033;-76
2022/07/29 04:09:30;;;;;;;5.38;1.67;;;14.90;99.90;;;;;;4844243;29;20077;-76
2022/07/29 04:11:56;;;;;;;4.53;1.67;;;14.90;99.90;;;;;;4848244;29;20046;-76
2022/07/29 04:14:22;;;;;;;4.38;1.60;;;14.90;99.90;;;;;;4825461;29;20081;-76
2022/07/29 04:16:47;;;;;;;4.03;1.88;;;14.80;99.90;;;;;;4841701;29;20466;-76
2022/07/29 04:19:13;;;;;;;2.65;1.45;;;14.80;99.90;;;;;;4843616;29;20045;-76
2022/07/29 04:21:40;;;;;;;4.65;1.67;;;14.80;99.90;;;;;;4841692;29;20045;-76
2022/07/29 04:24:07;;;;;;;3.20;1.80;;;14.80;99.90;;;;;;4840777;29;20050;-76
2022/07/29 04:26:33;;;;;;;3.75;1.67;;;14.80;99.90;;;;;;4827343;29;20049;-76
2022/07/29 04:28:59;;;;;;;3.53;1.80;;;14.80;99.90;;;;;;4839800;29;20077;-76
2022/07/29 04:31:25;;;;;;;3.00;1.60;;;14.80;99.90;;;;;;4842765;29;20142;-76
2022/07/29 04:33:51;;;;;;;4.80;1.75;;;14.70;99.90;;;;;;4820098;29;20158;-76
2022/07/29 04:36:16;;;;;;;4.70;1.63;;;14.80;99.90;;;;;;4848027;29;20054;-76
2022/07/29 04:38:42;;;;;;;4.18;1.65;;;14.70;99.90;;;;;;4839760;29;20137;-76
2022/07/29 04:41:09;;;;;;;6.30;1.58;;;14.70;99.90;;;;;;4839992;29;20042;-76
2022/07/29 04:43:35;;;;;;;3.83;1.52;;;14.70;99.90;;;;;;4843569;29;20553;-76
2022/07/29 04:46:02;;;;;;;3.63;1.75;;;14.70;99.90;;;;;;4837644;29;20061;-76
2022/07/29 04:48:27;;;;;;;3.00;1.60;;;14.70;99.90;;;;;;4826235;29;20045;-76
2022/07/29 04:50:53;;;;;;;5.28;1.55;;;14.70;99.90;;;;;;4846335;29;20046;-76
2022/07/29 04:53:19;;;;;;;2.70;1.52;;;14.70;99.90;;;;;;4838443;29;20065;-76
2022/07/29 04:55:45;;;;;;;4.90;1.67;;;14.70;99.90;;;;;;4823902;29;20069;-76
2022/07/29 04:58:11;;;;;;;5.70;1.60;;;14.70;99.90;;;;;;4819434;29;20507;-76
2022/07/29 05:00:37;;;;;;;3.75;1.55;;;14.70;99.90;;;;;;4840420;29;20038;-76
2022/07/29 05:03:03;;;;;;;5.25;1.60;;;14.70;99.90;;;;;;4836187;29;20360;-76
2022/07/29 05:05:29;;;;;;;9.15;2.50;;;14.70;99.90;;;;;;4840764;29;20037;-76
2022/07/29 05:07:55;;;;;;;6.07;1.70;;;14.70;99.90;;;;;;4842659;29;20104;-77
2022/07/29 05:10:21;;;;;;;7.65;1.70;;;14.80;99.90;;;;;;4852860;29;20033;-76
2022/07/29 05:12:46;;;;;;;3.63;1.50;;;14.80;99.90;;;;;;4844593;29;20478;-76
2022/07/29 05:15:13;;;;;;;6.03;1.95;;;14.80;99.90;;;;;;4843593;29;20038;-76
2022/07/29 05:17:39;;;;;;;3.63;1.73;;;14.80;99.90;;;;;;4857352;29;20097;-76
2022/07/29 05:20:06;;;;;;;4.15;1.55;;;14.80;99.90;;;;;;4829650;29;20050;-76
2022/07/29 05:22:31;;;;;;;2.45;1.40;;;14.80;99.90;;;;;;4831235;29;20042;-76
2022/07/29 05:24:57;;;;;;;5.55;1.70;;;14.80;99.90;;;;;;4859756;29;20045;-76
2022/07/29 05:27:23;;;;;;;3.10;1.83;;;14.90;99.90;;;;;;4838571;29;20144;-76
2022/07/29 05:29:48;;;;;;;3.75;1.65;;;14.90;99.90;;;;;;4814906;29;20391;-76
2022/07/29 05:32:14;;;;;;;5.35;1.50;;;15.00;99.90;;;;;;4848185;29;20392;-76
2022/07/29 05:34:41;;;;;;;3.92;1.90;;;14.90;99.90;;;;;;4854079;29;20050;-76
2022/07/29 05:37:06;;;;;;;2.28;1.58;;;15.00;99.90;;;;;;4849713;29;20045;-76
2022/07/29 05:39:32;;;;;;;4.35;1.90;;;15.00;99.90;;;;;;4856098;29;20509;-76
2022/07/29 05:41:58;;;;;;;5.10;1.58;;;15.10;99.90;;;;;;4857134;29;20069;-76
2022/07/29 05:44:23;;;;;;;4.18;1.50;;;15.10;99.90;;;;;;4843566;29;20048;-76
2022/07/29 05:46:49;;;;;;;3.97;1.85;;;15.10;99.90;;;;;;4828672;29;20041;-76
2022/07/29 05:49:15;;;;;;;3.42;1.80;;;15.20;99.90;;;;;;4827750;29;20046;-76
2022/07/29 05:51:40;;;;;;;3.13;1.80;;;15.30;99.90;;;;;;4845842;29;20041;-76
2022/07/29 05:54:06;;;;;;;4.88;1.60;;;15.30;99.90;;;;;;4813993;29;20050;-76
2022/07/29 05:56:32;;;;;;;4.95;1.80;;;15.40;99.90;;;;;;4842325;29;20041;-76
2022/07/29 05:58:58;;;;;;;3.30;1.65;;;15.40;99.90;;;;;;4846115;29;20049;-76
2022/07/29 06:01:24;;;;;;;4.70;1.77;;;15.40;99.90;;;;;;4830590;29;20125;-76
2022/07/29 06:03:49;;;;;;;4.57;1.92;;;15.50;99.90;;;;;;4859154;29;20128;-77
2022/07/29 06:06:15;;;;;;;4.20;2.00;;;15.50;99.90;;;;;;4862782;29;20041;-76
2022/07/29 06:08:41;;;;;;;6.80;1.77;;;15.50;99.90;;;;;;4831009;29;20140;-76
2022/07/29 06:11:08;;;;;;;4.25;1.85;;;15.60;99.90;;;;;;4827995;29;20037;-76
2022/07/29 06:13:34;;;;;;;4.03;1.60;;;15.60;99.90;;;;;;4830483;29;20550;-77
2022/07/29 06:16:00;;;;;;;3.22;1.70;;;15.60;99.90;;;;;;4839785;29;20053;-77
2022/07/29 06:18:25;;;;;;;4.18;1.80;;;15.60;99.90;;;;;;4844772;29;20078;-77
2022/07/29 06:20:52;;;;;;;4.07;1.80;;;15.60;99.90;;;;;;4831061;29;20493;-77
2022/07/29 06:23:18;;;;;;;3.17;1.73;;;15.60;99.90;;;;;;4858423;29;20041;-77
2022/07/29 06:25:44;;;;;;;4.72;1.95;;;15.60;99.90;;;;;;4840305;29;20182;-77
2022/07/29 06:28:10;;;;;;;6.93;1.90;;;15.70;99.90;;;;;;4833031;29;20128;-77
2022/07/29 06:30:36;;;;;;;5.07;1.88;;;15.60;99.90;;;;;;4835503;29;20121;-77
2022/07/29 06:33:03;;;;;;;3.67;1.80;;;15.70;99.90;;;;;;4813913;29;20591;-76
2022/07/29 06:35:28;;;;;;;3.38;2.30;;;15.70;99.90;;;;;;4849981;29;20186;-77
2022/07/29 06:37:54;;;;;;;9.15;1.92;;;15.70;99.90;;;;;;4838457;29;20148;-78
2022/07/29 06:43:04;;;;;;;4.57;2.08;;;15.70;99.90;;;;;;4848060;29;20060;-77
2022/07/29 06:45:33;;;;;;;3.15;1.67;;;15.70;99.90;;;;;;4843394;29;20045;-77
2022/07/29 06:47:59;;;;;;;7.30;1.90;;;15.70;99.90;;;;;;4830431;29;20049;-76
2022/07/29 06:50:25;;;;;;;4.28;1.73;;;15.70;99.90;;;;;;4845285;29;20041;-76
2022/07/29 06:52:51;;;;;;;5.90;1.98;;;15.70;99.90;;;;;;4858644;29;20049;-76
2022/07/29 06:55:19;;;;;;;6.38;2.20;;;15.80;99.90;;;;;;4830732;29;20034;-76
2022/07/29 06:57:46;;;;;;;4.50;1.95;;;15.80;99.90;;;;;;4859805;29;20145;-76
2022/07/29 07:00:13;;;;;;;5.60;2.17;;;15.90;99.90;;;;;;4838676;29;20478;-76
2022/07/29 07:02:38;;;;;;;5.22;2.42;;;15.90;99.90;;;;;;4826906;29;20046;-77
2022/07/29 07:05:05;;;;;;;3.40;1.80;;;15.90;99.90;;;;;;4822389;29;20110;-77
2022/07/29 07:07:31;;;;;;;5.03;1.80;;;16.00;99.90;;;;;;4812543;29;20088;-77
2022/07/29 07:09:57;;;;;;;6.75;2.13;;;16.00;99.90;;;;;;4838841;29;20073;-77
2022/07/29 07:12:22;;;;;;;5.15;2.00;;;15.90;99.90;;;;;;4838869;29;20566;-77
2022/07/29 07:14:48;;;;;;;5.10;2.10;;;16.00;99.90;;;;;;4844020;29;20049;-76
2022/07/29 07:17:14;;;;;;;5.47;2.20;;;16.00;99.90;;;;;;4843220;29;20079;-76
2022/07/29 07:19:40;;;;;;;3.00;2.30;;;16.00;99.90;;;;;;4829860;29;20402;-77
2022/07/29 07:22:05;;;;;;;6.22;2.10;;;16.00;99.90;;;;;;4845375;29;20056;-76
2022/07/29 07:24:31;;;;;;;5.32;2.30;;;16.00;99.90;;;;;;4843603;29;20049;-76
2022/07/29 07:26:57;;;;;;;4.88;2.58;;;16.00;99.90;;;;;;4828933;29;20132;-76
2022/07/29 07:29:22;;;;;;;3.78;1.90;;;16.00;99.90;;;;;;4844695;29;20053;-77
2022/07/29 07:31:48;;;;;;;3.47;2.20;;;16.00;99.90;;;;;;4855216;29;20045;-76
2022/07/29 07:34:14;;;;;;;3.95;2.30;;;16.00;99.90;;;;;;4841636;29;20077;-78
2022/07/29 07:36:40;;;;;;;3.38;2.30;;;16.00;99.90;;;;;;4824552;29;20533;-77
2022/07/29 07:39:06;;;;;;;2.90;1.98;;;16.00;99.90;;;;;;4855661;29;20190;-77
2022/07/29 07:41:32;;;;;;;5.38;2.75;;;16.00;99.90;;;;;;4850921;29;20048;-77
2022/07/29 07:43:57;;;;;;;3.22;2.00;;;16.00;99.90;;;;;;4826209;29;20050;-76
2022/07/29 07:46:23;;;;;;;4.78;2.03;;;16.00;99.90;;;;;;4843370;29;20041;-77
2022/07/29 07:48:49;;;;;;;5.40;2.08;;;16.00;99.90;;;;;;4861149;29;20137;-77
2022/07/29 07:51:14;;;;;;;4.05;2.30;;;16.00;99.90;;;;;;4844919;29;20064;-77
2022/07/29 07:53:40;;;;;;;6.20;2.47;;;16.10;99.90;;;;;;4860469;29;20865;-77
2022/07/29 07:56:06;;;;;;;7.20;2.30;;;16.10;99.90;;;;;;4859732;29;20074;-77
2022/07/29 07:58:34;;;;;;;4.45;2.42;;;16.10;99.90;;;;;;4859251;29;20045;-78
2022/07/29 08:01:00;;;;;;;4.22;2.25;;;16.20;99.90;;;;;;4849203;29;20120;-76
2022/07/29 08:03:25;;;;;;;5.65;2.13;;;16.30;99.90;;;;;;4817910;29;20141;-78
2022/07/29 08:05:51;;;;;;;7.18;2.60;;;16.30;99.90;;;;;;4856340;29;20419;-78
2022/07/29 08:08:17;;;;;;;6.85;2.47;;;16.40;99.90;;;;;;4857682;29;20101;-77
2022/07/29 08:10:52;;;;;;;6.70;2.55;;;16.50;99.90;;;;;;4857379;29;20419;-77
2022/07/29 08:13:19;;;;;;;5.32;2.80;;;16.60;99.90;;;;;;4865598;29;20048;-77
2022/07/29 08:15:45;;;;;;;4.07;2.30;;;16.60;99.90;;;;;;4852410;29;20069;-77
2022/07/29 08:18:14;;;;;;;5.10;2.28;;;16.60;99.90;;;;;;4852564;29;20522;-77
2022/07/29 08:20:40;;;;;;;6.47;2.70;;;16.80;99.90;;;;;;4853483;29;20107;-77
2022/07/29 08:23:08;;;;;;;4.97;2.30;;;16.80;99.90;;;;;;4853335;29;20049;-76
2022/07/29 08:25:36;;;;;;;7.30;2.60;;;16.90;99.90;;;;;;4853268;29;20038;-76
2022/07/29 08:28:02;;;;;;;9.48;2.40;;;17.00;99.90;;;;;;4834078;29;20151;-76
2022/07/29 08:30:28;;;;;;;6.65;2.80;;;17.00;99.90;;;;;;4834109;29;20058;-76
2022/07/29 08:32:54;;;;;;;5.22;2.78;;;17.00;99.90;;;;;;4857552;29;20516;-76
2022/07/29 08:35:20;;;;;;;5.18;2.35;;;17.10;99.90;;;;;;4829188;29;20585;-76
2022/07/29 08:37:46;;;;;;;8.52;3.00;;;17.10;99.90;;;;;;4843934;29;20062;-76
2022/07/29 08:40:12;;;;;;;6.75;2.65;;;17.10;99.90;;;;;;4842484;29;20529;-76
2022/07/29 08:42:37;;;;;;;5.28;2.40;;;17.10;99.90;;;;;;4845725;29;20068;-77
2022/07/29 08:45:04;;;;;;;9.63;2.78;;;17.10;99.90;;;;;;4850956;29;20486;-76
2022/07/29 08:47:30;;;;;;;4.97;2.60;;;17.20;99.90;;;;;;4840071;29;20190;-78
2022/07/29 08:49:56;;;;;;;6.75;2.47;;;17.20;99.90;;;;;;4857310;29;20125;-77
2022/07/29 08:52:26;;;;;;;6.75;2.67;;;17.20;99.90;;;;;;4824391;29;20675;-78
2022/07/29 08:54:53;;;;;;;4.72;2.17;;;17.30;99.90;;;;;;4839357;29;20050;-78
2022/07/29 08:57:21;;;;;;;8.20;2.80;;;17.20;99.90;;;;;;4841695;29;20045;-77
2022/07/29 08:59:49;;;;;;;7.43;2.53;;;17.30;99.90;;;;;;4859413;29;20056;-77
2022/07/29 09:02:28;;;;;;;7.03;2.60;;;17.30;99.90;;;;;;4836282;29;20041;-78
2022/07/29 09:04:53;;;;;;;6.45;2.80;;;17.20;99.90;;;;;;4857438;29;20041;-77
2022/07/29 09:07:19;;;;;;;5.55;2.80;;;17.30;99.90;;;;;;4853315;29;20061;-77
2022/07/29 09:09:45;;;;;;;5.15;2.55;;;17.30;99.90;;;;;;4845953;29;20124;-77
2022/07/29 09:12:12;;;;;;;4.75;2.65;;;17.40;99.90;;;;;;4860710;29;20411;-78
2022/07/29 09:14:38;;;;;;;8.18;2.70;;;17.50;99.90;;;;;;4854424;29;20053;-77
2022/07/29 09:17:04;;;;;;;7.78;2.58;;;17.40;99.90;;;;;;4810865;29;20093;-78
2022/07/29 09:19:34;;;;;;;3.75;2.40;;;17.50;99.90;;;;;;4857006;29;20130;-77
2022/07/29 09:22:02;;;;;;;5.68;2.40;;;17.60;99.90;;;;;;4826487;29;20049;-77
2022/07/29 09:24:43;;;;;;;5.25;2.40;;;17.70;99.90;;;;;;4853960;29;20402;-76
2022/07/29 09:27:23;;;;;;;5.15;2.83;;;17.80;99.90;;;;;;4840070;29;20931;-77
2022/07/29 09:30:04;;;;;;;4.88;2.58;;;17.90;99.90;;;;;;4855450;29;20048;-77
2022/07/29 09:32:30;;;;;;;5.18;2.58;;;17.90;99.90;;;;;;4838774;29;20056;-77
2022/07/29 09:35:16;;;;;;;4.82;2.80;;;17.90;99.90;;;;;;4855018;29;20041;-78
2022/07/29 09:37:43;;;;;;;3.55;2.40;;;18.00;99.90;;;;;;4851842;29;20045;-78
2022/07/29 09:40:21;;;;;;;5.15;2.35;;;18.20;99.90;;;;;;4848947;29;20650;-78
2022/07/29 09:42:47;;;;;;;7.57;2.78;;;18.40;99.90;;;;;;4853968;29;20124;-78
2022/07/29 09:45:26;;;;;;;6.40;2.50;;;18.50;99.90;;;;;;4826910;29;20461;-77
2022/07/29 09:47:51;;;;;;;5.32;2.50;;;18.60;99.90;;;;;;4846555;29;20145;-77
2022/07/29 09:50:23;;;;;;;5.05;2.33;;;18.60;99.90;;;;;;4831017;29;20087;-78
2022/07/29 09:52:53;;;;;;;5.28;2.30;;;18.70;99.90;;;;;;4817388;29;20054;-78
2022/07/29 09:55:19;;;;;;;6.60;2.85;;;18.70;99.90;;;;;;4843836;29;20073;-78
2022/07/29 09:57:46;;;;;;;6.13;2.72;;;18.80;99.90;;;;;;4847737;29;20136;-78
2022/07/29 10:00:15;;;;;;;3.20;2.40;;;18.80;99.90;;;;;;4829920;29;20045;-79
2022/07/29 10:02:45;;;;;;;7.28;2.70;;;18.90;99.90;;;;;;4832619;29;20046;-78
2022/07/29 10:05:23;;;;;;;5.18;2.50;;;19.00;99.90;;;;;;4847074;29;20372;-78
2022/07/29 10:07:54;;;;;;;10.48;2.70;;;19.00;99.90;;;;;;4850292;29;20663;-78
2022/07/29 10:10:34;;;;;;;8.05;2.42;;;19.10;99.90;;;;;;4857909;29;20513;-78
2022/07/29 10:13:02;;;;;;;6.30;2.65;;;19.20;99.90;;;;;;4832881;29;20045;-77
2022/07/29 10:15:31;;;;;;;5.07;2.60;;;19.30;99.90;;;;;;4855199;29;20056;-78
2022/07/29 10:17:58;;;;;;;4.57;2.60;;;19.40;99.90;;;;;;4830592;29;20479;-78
2022/07/29 10:20:25;;;;;;;4.68;2.72;;;19.50;99.90;;;;;;4832461;29;20045;-78
2022/07/29 10:22:52;;;;;;;5.22;2.35;;;19.60;99.90;;;;;;4858292;29;20443;-78
2022/07/29 10:25:18;;;;;;;3.80;2.50;;;19.70;99.90;;;;;;4850816;29;20620;-76
2022/07/29 10:27:46;;;;;;;3.40;2.42;;;19.70;99.90;;;;;;4854523;29;20052;-78
2022/07/29 10:30:14;;;;;;;7.18;2.97;;;19.70;99.90;;;;;;4834971;29;20116;-78
2022/07/29 10:32:51;;;;;;;4.00;2.33;;;19.80;99.90;;;;;;4856876;29;20113;-78
2022/07/29 10:35:50;;;;;;;5.85;2.92;;;19.80;99.90;;;;;;4843734;29;20060;-77
2022/07/29 10:38:27;;;;;;;7.15;3.05;;;19.90;99.90;;;;;;4833387;29;20395;-77
2022/07/29 10:41:26;;;;;;;6.38;2.70;;;19.90;99.90;;;;;;4872209;29;20615;-76
2022/07/29 10:43:58;;;;;;;6.88;2.50;;;20.00;99.90;;;;;;4836974;29;20038;-77
2022/07/29 10:46:25;;;;;;;4.65;2.60;;;20.10;99.90;;;;;;4843025;29;20049;-77
2022/07/29 10:49:11;;;;;;;8.32;2.83;;;20.10;99.90;;;;;;4843883;29;20097;-77
2022/07/29 10:51:59;;;;;;;7.90;2.87;;;20.20;99.90;;;;;;4863995;29;20426;-77
2022/07/29 10:54:37;;;;;;;7.28;2.80;;;20.30;99.90;;;;;;4850025;29;20042;-78
2022/07/29 10:57:30;;;;;;;4.85;2.63;;;20.30;99.90;;;;;;4858779;29;20045;-77
2022/07/29 11:00:04;;;;;;;4.72;2.97;;;20.40;99.90;;;;;;4839826;29;20039;-77
2022/07/29 11:02:33;;;;;;;5.53;2.50;;;20.40;99.90;;;;;;4859858;29;20132;-78
2022/07/29 11:05:17;;;;;;;7.35;2.60;;;20.50;99.90;;;;;;4843008;29;20102;-78
2022/07/29 11:08:17;;;;;;;5.70;2.72;;;20.50;99.90;;;;;;4846318;29;20098;-77
2022/07/29 11:10:49;;;;;;;6.18;2.40;;;20.70;99.90;;;;;;4848587;29;20058;-77
2022/07/29 11:13:43;;;;;;;6.00;2.40;;;20.70;99.90;;;;;;4822597;29;20181;-77
2022/07/29 11:16:09;;;;;;;7.28;2.70;;;20.60;99.90;;;;;;4855476;29;20038;-78
2022/07/29 11:18:35;;;;;;;6.47;2.40;;;20.70;99.90;;;;;;4835852;29;20037;-78
2022/07/29 11:21:00;;;;;;;4.88;2.47;;;20.60;99.90;;;;;;4874636;29;20073;-78
2022/07/29 11:23:33;;;;;;;5.88;2.67;;;20.70;99.90;;;;;;4827103;29;20042;-78
2022/07/29 11:26:19;;;;;;;6.85;2.65;;;20.80;99.90;;;;;;4859506;29;20116;-77
2022/07/29 11:28:57;;;;;;;4.97;2.45;;;20.90;99.90;;;;;;4856113;29;20049;-78
2022/07/29 11:31:39;;;;;;;4.32;2.65;;;21.00;99.90;;;;;;4858634;29;20105;-78
2022/07/29 11:34:32;;;;;;;9.27;2.95;;;21.10;99.90;;;;;;4857653;29;20053;-77
2022/07/29 11:37:07;;;;;;;5.57;2.65;;;21.20;98.40;;;;;;4846762;29;20502;-77
2022/07/29 11:39:35;;;;;;;5.30;3.00;;;21.10;99.50;;;;;;4860242;29;20124;-78
2022/07/29 11:42:24;;;;;;;4.80;2.80;;;21.20;99.70;;;;;;4837664;29;20041;-77
2022/07/29 11:45:06;;;;;;;6.38;2.40;;;21.10;99.10;;;;;;4837487;29;20101;-78
2022/07/29 11:47:37;;;;;;;5.70;2.65;;;21.20;99.30;;;;;;4852986;29;20463;-78
2022/07/29 11:50:06;;;;;;;4.95;2.30;;;21.30;98.80;;;;;;4859049;29;20045;-78
2022/07/29 11:52:44;;;;;;;9.70;2.58;;;21.20;99.00;;;;;;4843978;29;20558;-78
2022/07/29 11:55:12;;;;;;;6.43;2.40;;;21.30;98.60;;;;;;4858323;29;20059;-77
2022/07/29 11:57:47;;;;;;;7.22;2.55;;;21.30;98.80;;;;;;4848103;29;20053;-78
2022/07/29 12:00:29;;;;;;;4.30;2.25;;;21.40;98.60;;;;;;4859529;29;20101;-78
2022/07/29 12:02:57;;;;;;;5.18;2.40;;;21.50;98.90;;;;;;4856797;29;20037;-79
2022/07/29 12:05:35;;;;;;;6.25;2.63;;;21.60;99.00;;;;;;4861342;29;20045;-77
2022/07/29 12:08:08;;;;;;;7.20;2.97;;;21.60;98.80;;;;;;4852536;29;20041;-78
2022/07/29 12:10:34;;;;;;;6.10;2.50;;;21.80;98.10;;;;;;4848421;29;20041;-78
2022/07/29 12:12:59;;;;;;;6.57;2.78;;;21.80;98.50;;;;;;4826057;29;20053;-78
2022/07/29 12:15:26;;;;;;;5.97;2.58;;;21.80;98.30;;;;;;4856133;29;20378;-77
2022/07/29 12:17:52;;;;;;;5.13;2.35;;;21.90;98.40;;;;;;4820159;29;20106;-78
2022/07/29 12:20:29;;;;;;;7.32;2.75;;;22.00;98.40;;;;;;4847724;29;20042;-78
2022/07/29 12:22:55;;;;;;;5.35;2.50;;;22.10;97.60;;;;;;4854389;29;20065;-77
2022/07/29 12:25:24;;;;;;;6.22;2.58;;;22.30;97.00;;;;;;4837929;29;20045;-78
2022/07/29 12:28:01;;;;;;;5.43;2.83;;;22.30;97.20;;;;;;4828623;29;20050;-78
2022/07/29 12:30:41;;;;;;;7.50;2.63;;;22.30;97.50;;;;;;4842176;29;20066;-76
2022/07/29 12:33:18;;;;;;;4.82;3.00;;;22.40;97.50;;;;;;4856705;29;20423;-76
2022/07/29 12:35:47;;;;;;;8.85;2.83;;;22.70;96.70;;;;;;4843347;29;20049;-77
2022/07/29 12:38:13;;;;;;;6.15;3.00;;;22.80;96.90;;;;;;4857896;29;20060;-78
2022/07/29 12:40:39;;;;;;;8.05;2.55;;;22.80;96.80;;;;;;4856884;29;20383;-77
2022/07/29 12:43:09;;;;;;;6.13;2.28;;;22.90;96.70;;;;;;4827677;29;20037;-77
2022/07/29 12:45:39;;;;;;;5.25;2.42;;;23.10;96.00;;;;;;4857929;29;20116;-77
2022/07/29 12:48:08;;;;;;;8.35;2.30;;;23.10;95.70;;;;;;4842825;29;20052;-77
2022/07/29 12:50:35;;;;;;;5.15;2.58;;;23.20;96.10;;;;;;4844992;29;20049;-77
2022/07/29 12:53:13;;;;;;;5.05;2.97;;;23.30;96.10;;;;;;4840689;29;20070;-77
2022/07/29 12:55:54;;;;;;;8.40;2.67;;;23.30;95.60;;;;;;4852798;29;20038;-78
2022/07/29 12:58:40;;;;;;;6.13;2.60;;;23.30;95.50;;;;;;4853052;29;20097;-78
2022/07/29 13:01:11;;;;;;;7.47;2.47;;;23.20;96.00;;;;;;4840171;29;20436;-78
2022/07/29 13:03:49;;;;;;;5.25;2.53;;;23.30;95.50;;;;;;4868083;29;20380;-78
2022/07/29 13:06:34;;;;;;;5.38;2.10;;;23.40;96.00;;;;;;4836315;29;20042;-77